Timeline UpdatesTrip UpdatesNews PostsPvt Posts♥♥Travel TipsAdmin PostsConv PostsFollowed PostsChat RequestsBlog PostsPNR Posts

Disclaimer
Search
 
 
Fri Dec 19, 2014 05:20:42 ISTHomeTrainsΣChainsAtlasPNRForumGalleryNewsFAQTripsMembersLoginFeedback
PNR Super Search

Ticket PNR Status Inquiry - PNR: 620-xxxxxxx (E-Ticket)

OLD STATUS

Status Last Updated on: Oct 31 2011 (7:14AM) IST

Date of Journey: Mon Oct 31, 2011   Class: Sleeper - SL   (Total Seats available for this Class/Quota: Avbl >14)
Passenger 1: S4,10 (Booking Status: W/L 46,RLGN)
Chart PREPARED

East Coast Express/18645

Travel Time: 6h 55m    8 halts    Distance: 359 km    Avg Speed: 51 km/hr
Type: Mail/Express
Zone: SER/South Eastern
Departs @ 11:35 (Avg 10m late)
Platform# 1
SMTWTFS
Vijayawada Junction/BZA 
Arrives @ 18:30 (Avg 11m late)
Platform# 5
SMTWTFS
Hyderabad Deccan Nampally/HYB 

8 halts. 54 intermediate Stations between Vijayawada Junction and Hyderabad Deccan Nampally

Show ALL intermediate Stations  Show Old Time-Table

#TrkCodeStation NameX/OArrivesAvgDepartsAvgHaltPFDay#KmSpeedElevZoneAddress
1/==/HWHKolkata Howrah Junction (23)  -11:45+3221-1230.26610mERHowrah 711101, West Bengal
2/==/MCAMecheda (6)X  12:40 12:38+1612:42 12:40+222m--1-1172.03710mSERdist - purba Medinipur, West Bengal
3/==/PKUPanskura Junction (6)X  13:03 13:00+1513:04 13:02+171 2m--1-1159.6599mSERPanskura, West Bengal
4/==/KGPKharagpur Junction (10)X  13:47+813:52+135m11-1115.27342mSERDist: West Medinipur, West Bengal
5/==/BLDABelda (4)  14:22 14:21+1814:23+181 2m--1-1079.77924mSERDistrict Paschim Medinipur, West Bengal
6/==/JERJaleswar (4)  14:49 14:48+2114:50+211 2m--1-1046.66513mSERJaleswar, Odisha
7/==/BTSBasta (3)X  15:09 15:08+1915:10+211 2m--1-1027.24716mSERBasta, Odisha
8/==/ROPRupsa Junction (5)XO  15:24 15:23+1915:25+181 2m--1-1017.05313mSERRupsa, Odisha
9/==/BLSBalasore (4)  15:45+1115:50+105m--1-999.28719mSERBalasore, Odisha
10/==/SOROSoroX  16:14 16:13+1516:15+151 2m--1-965.76814mSERSoro, Odisha
11/==/MKOMarkonaX  16:29 16:28+1216:30+121 2m--1-950.92018mSERMarkuna, Odisha
12/==/BHCBhadrak (4)X  17:13+317:15+52m--1-936.78323mECoRBhadrak, Odisha
13/==/BTVBaitarani Road  17:36 17:38+1017:37 17:39+111m--1-904.96927mECoRBaitarani, Odisha
14/==/KRIHKorai Halt  17:44 17:45+1217:45 17:46+121m--1-898.04930mECoRJajapur, Odisha
15/==/JJKRJajpur Keonjhar Road (4)  17:51 17:52+1317:52 17:54+131 2m--1-893.08836mECoRJajpur, Odisha
16/==/DNMDhanmandal (3)X  18:20 18:19+1418:21 18:20+151m--1-856.55838mECoRDhanmanda, Odisha
17%==/CTCCuttack Junction (5)X  18:55 18:57+1319:00 19:02+165m31-821.04628mECoRCuttack, Odisha
18%==/BRAGBarang  19:17 19:18+1919:18 19:19+191m--1-808.93027mECoRDist - Cuttack, Odisha
19/==/BBSBhubaneswar (4)X  19:45 19:50+1319:50 19:55+145m41-793.23840mECoRBhubaneshwar, Odisha
20/==/KURKhurda Road Junction (7)X  20:20 20:25+1220:35 20:40+1215m81-774.27625mECoRKhordha, Odisha
21/==/NKPNirakarpur  20:57 21:01+1520:58 21:03+151 2m--1-747.87821mECoRNirakarpur, Odisha
22/==/KAPGKalupara Ghat  21:12 21:16+1621:13 21:18+161 2m31-730.88310mECoRChandeswar, Odisha
23/==/BALUBalugaon (3)  21:35 21:38+1821:36 21:40+181 2m21-703.26211mECoR752030, Odisha
24/==/CLKAChilka  21:44 21:47+1821:45 21:49+181 2m--1-695.96725mECoRBarkul, Odisha
25/==/KITKhallikot (3)  21:54 21:58+1721:55 22:00+171 2m--1-685.97513mECoRKhallikot, Odisha
26/==/CAPChatrapur  22:23 22:30+2022:24 22:32+201 2m--1-648.57236mECoRChatrapur, Odisha
27/==/BAMBrahmapur (3)O  22:40 22:50+2022:50 23:00+1510m21-627.17027mECoRBerhampur, Odisha
28/==/IPMIchchapuramX  23:13 23:21+1423:14 23:23+151 2m--1-602.68321mECoRIchchapuram, Andhra Pradesh
29/==/SPTSompeta (4)O  23:28 23:36+623:29 23:38+61 2m--1-584.63548mECoRKanchili, Andhra Pradesh
30/==/PSAPalasa (3)  00:18 00:33+200:20 00:35+32m--2-552.87731mECoRKasibugga, Andhra Pradesh
31/==/NWPNaupada Junction  00:43 00:55+1000:44 00:57+101 2m--2-527.08613mECoRNuapada . ph.no. 08945-249728, Andhra Pradesh
32/==/CHESrikakulam Road (4)  01:20 01:30+1001:22 01:32+112m--2-479.88334mECoRsrikakulam road ph .no. 08942-287222, Andhra Pradesh
33/==/CPPChipurupalleX  01:53 02:00+1101:54 02:02+111 2m--2-441.15699mECoRCheepurupalli, Andhra Pradesh
34/==/VZMVizianagaram Junction (5)  02:30 02:35+1102:35 02:40+125m--2-410.27563mECoRVizianagaram, Andhra Pradesh
35/==/KTVKottavalasa Junction (5)X  03:03 03:08+2003:04 03:10+201 2m--2-375.37758mECoRVizianagaram District, Andhra Pradesh
36/==/SCMSimhachalam (2)  03:21 03:24-03:22 03:26-1 2m--2-357.21727mECoRVisakhapatnam, Andhra Pradesh
37/==/VSKPVisakhapatnam Junction (8)XO03:45 03:55+904:05 04:15+1020m32-349.13311mECoRVishakhapatnam 530001, Andhra Pradesh
38/==/DVDDuvvada (4)X  04:33 04:45+904:35 04:47+102m12-332.84446mECoRVishakhapatnam District, Andhra Pradesh
39/==/AKPAnakapalle (3)X  04:53 05:09+704:54 05:10+91m22-316.85930mSCRAnakapalle ph.no . 08924-221698, Andhra Pradesh
40/==/YLMElamanchili (2)X  05:14 05:34+1405:15 05:35+181m12-293.07123mSCRVisakhapatnam District, Andhra Pradesh
41/==/TUNITuni (2)X  05:43 06:09+2105:44 06:10+221m12-253.06224mSCRTuni ph.no. 08854-252172, Andhra Pradesh
42/==/ANVAnnavaram (3)XO  05:58 06:26+2205:59 06:27+241m12-236.34627mSCREast Godavari District, Andhra Pradesh
43/==/PAPPithapuram (2)XO  06:19 06:59+1506:20 07:00+201m12-211.58022mSCREast Godavari District, Andhra Pradesh
44/==/SLOSamalkot Junction (3)XO  06:34 07:09+2406:35 07:10+251m32-199.56318mSCRSamalkot, Andhra Pradesh
45/==/DWPDwarapudi (3)X07:04 07:39+2507:05 07:40+271m--2-169.24020mSCREast Godavari District, Andhra Pradesh
46/==/RJYRajahmundry (3)  07:42 08:10+2307:44 08:12+252m12-149.35523mSCRRajahmundry ph.no. 0883-2420541, Andhra Pradesh
47/==/NDDNidadavolu Junction (3)XO  08:08 08:36+3508:09 08:37+361m22-127.17520mSCRNidadavolu jtn ph.no. 08813-210325, Andhra Pradesh
48/==/TDDTadepalligudem (3)  08:26 08:53+3808:27 08:54+401m32-107.19218mSCRTadepalligudem, Andhra Pradesh
49/==/EEEluru (3)  09:00 09:25+4609:01 09:26+471m32-59.43319mSCREluru Ph.no. 08812 226401., Andhra Pradesh
50/==/BZAVijayawada Junction (10)»X11:00 11:15+811:20 11:35+1020m120.09324mSCRVijayawada 520001, Andhra Pradesh
51/==/KMTKhammam (2)X  12:30 12:40+5212:32 12:42+522m22100.466118mSCRKhammam 507001, Telangana
52/==/MABDMahbubabad (2)  13:15 13:25+5713:16 13:26+591m22147.858200mSCRWarangal Dist., Telangana
53/==/WLWarangal (3)  14:08 14:28+4614:10 14:30+482m22207.947271mSCRWarangal., Telangana
54/==/KZJKazipet Junction (3)X  14:40 14:43+4814:42 14:45+492m32218.164292mSCRWarangal Dist., Telangana
55/==/ZNJangaon (2)  15:31 15:30+1:0215:32+1:021 2m12266.039380mSCRWarangal Dist., Telangana
56/==/ALERAler (2)  15:55+5715:56+571m22281.145366mSCRNalgonda Dist., Telangana
57/==/BGBhongir (3)X  16:26+4916:27+501m12303.430455mSCRNalgonda Dist., Telangana
58/==/SCSecunderabad Junction (10)X  18:00+1518:05+145m52349.722539mSCRSecunderabad 500003, Telangana
59/==/HYBHyderabad Deccan Nampally (6)•  18:30+11-52359.0-510mSCRHyderabad, Telangana
Scroll to Top
Scroll to Bottom


Go to Mobile site